Informes METAR cercanos

 

LEBZ - Talavera Ab/Bada, Spain
Distancia desde la estación: ONO 43km
Actualización: 20/05/2022 21:00
NO Actualizado
Despejado(0/8)
Despejado(0/8)
 Viento del NE
Viento: NE 9 km/h
Temperatura: 33°C
Rocío: 10°C
Humedad: 24%
Barómetro: 1013 hPa
Resumen: Despejado , 0/8
Visibilidad: Superior a 10 km
2022/05/20 19:00 LEBZ 201900Z 04005KT CAVOK 33/10 Q1013